Terminal Aerodrome Forecast
Issued by NWS Melbourne, FL

Current Version | Previous Version | Text Only | Print | Product List | Glossary On
Versions: 1 2 3 4 5 6 7 8 9 10 11 12 13 14 15 16
000
FTUS42 KMLB 161803 AAA
TAFDAB
TAF AMD
KDAB 161803Z 1618/1718 04007KT P6SM SCT030 BKN050
      TEMPO 1618/1621 BKN030
     FM162100 04007KT P6SM FEW035 SCT050 BKN250
     FM170000 05004KT P6SM FEW040 BKN250
     FM170900 04003KT P6SM FEW020 BKN250
      TEMPO 1709/1713 6SM BR=

USA.gov is the U.S. government's official web portal to all federal, state and local government web resources and services.